sensor_id;sensor_type;location;lat;lon;timestamp;P1;durP1;ratioP1;P2;durP2;ratioP2
38425;SDS011;24210;51.460;6.148;2022-11-20T00:01:28;13.00;;;10.77;;
38425;SDS011;24210;51.460;6.148;2022-11-20T00:03:54;13.97;;;9.20;;
38425;SDS011;24210;51.460;6.148;2022-11-20T00:06:19;15.07;;;11.02;;
38425;SDS011;24210;51.460;6.148;2022-11-20T00:08:45;16.60;;;10.97;;
38425;SDS011;24210;51.460;6.148;2022-11-20T00:11:11;16.43;;;11.13;;
38425;SDS011;24210;51.460;6.148;2022-11-20T00:13:37;12.45;;;9.57;;
38425;SDS011;24210;51.460;6.148;2022-11-20T00:16:03;14.67;;;11.10;;
38425;SDS011;24210;51.460;6.148;2022-11-20T00:18:28;14.25;;;10.48;;
38425;SDS011;24210;51.460;6.148;2022-11-20T00:20:59;13.67;;;10.67;;
38425;SDS011;24210;51.460;6.148;2022-11-20T00:23:24;15.65;;;10.73;;
38425;SDS011;24210;51.460;6.148;2022-11-20T00:25:49;13.97;;;10.23;;
38425;SDS011;24210;51.460;6.148;2022-11-20T00:28:15;12.20;;;9.73;;
38425;SDS011;24210;51.460;6.148;2022-11-20T00:30:40;13.73;;;10.30;;
38425;SDS011;24210;51.460;6.148;2022-11-20T00:33:05;13.00;;;10.43;;
38425;SDS011;24210;51.460;6.148;2022-11-20T00:35:30;15.37;;;11.30;;
38425;SDS011;24210;51.460;6.148;2022-11-20T00:37:56;13.90;;;10.60;;
38425;SDS011;24210;51.460;6.148;2022-11-20T00:40:21;15.27;;;12.23;;
38425;SDS011;24210;51.460;6.148;2022-11-20T00:42:46;11.63;;;9.17;;
38425;SDS011;24210;51.460;6.148;2022-11-20T00:45:11;10.73;;;9.13;;
38425;SDS011;24210;51.460;6.148;2022-11-20T00:47:36;14.87;;;11.00;;
38425;SDS011;24210;51.460;6.148;2022-11-20T00:50:02;12.40;;;9.87;;
38425;SDS011;24210;51.460;6.148;2022-11-20T00:52:27;15.23;;;9.70;;
38425;SDS011;24210;51.460;6.148;2022-11-20T00:54:52;13.03;;;10.10;;
38425;SDS011;24210;51.460;6.148;2022-11-20T00:57:17;13.00;;;10.07;;
38425;SDS011;24210;51.460;6.148;2022-11-20T00:59:42;13.60;;;10.20;;
38425;SDS011;24210;51.460;6.148;2022-11-20T01:02:08;13.40;;;10.63;;
38425;SDS011;24210;51.460;6.148;2022-11-20T01:04:33;14.67;;;10.33;;
38425;SDS011;24210;51.460;6.148;2022-11-20T01:06:58;13.40;;;9.77;;
38425;SDS011;24210;51.460;6.148;2022-11-20T01:09:23;12.57;;;9.80;;
38425;SDS011;24210;51.460;6.148;2022-11-20T01:11:49;13.33;;;10.37;;
38425;SDS011;24210;51.460;6.148;2022-11-20T01:14:18;12.83;;;9.73;;
38425;SDS011;24210;51.460;6.148;2022-11-20T01:16:44;14.73;;;11.50;;
38425;SDS011;24210;51.460;6.148;2022-11-20T01:19:11;14.00;;;11.07;;
38425;SDS011;24210;51.460;6.148;2022-11-20T01:21:38;14.70;;;10.77;;
38425;SDS011;24210;51.460;6.148;2022-11-20T01:24:04;13.75;;;10.80;;
38425;SDS011;24210;51.460;6.148;2022-11-20T01:26:31;13.55;;;10.77;;
38425;SDS011;24210;51.460;6.148;2022-11-20T01:28:57;13.60;;;10.55;;
38425;SDS011;24210;51.460;6.148;2022-11-20T01:31:24;15.07;;;10.73;;
38425;SDS011;24210;51.460;6.148;2022-11-20T01:36:15;15.23;;;11.00;;
38425;SDS011;24210;51.460;6.148;2022-11-20T01:38:40;18.98;;;11.02;;
38425;SDS011;24210;51.460;6.148;2022-11-20T01:41:06;16.10;;;12.43;;
38425;SDS011;24210;51.460;6.148;2022-11-20T01:43:31;15.20;;;10.53;;
38425;SDS011;24210;51.460;6.148;2022-11-20T01:51:00;15.85;;;11.02;;
38425;SDS011;24210;51.460;6.148;2022-11-20T01:53:27;14.25;;;10.27;;
38425;SDS011;24210;51.460;6.148;2022-11-20T01:55:54;15.07;;;11.40;;
38425;SDS011;24210;51.460;6.148;2022-11-20T01:58:22;14.00;;;11.27;;
38425;SDS011;24210;51.460;6.148;2022-11-20T02:00:49;14.98;;;11.60;;
38425;SDS011;24210;51.460;6.148;2022-11-20T02:03:15;13.73;;;10.50;;
38425;SDS011;24210;51.460;6.148;2022-11-20T02:05:45;16.88;;;11.68;;
38425;SDS011;24210;51.460;6.148;2022-11-20T02:08:12;14.10;;;10.98;;
38425;SDS011;24210;51.460;6.148;2022-11-20T02:10:38;13.47;;;10.57;;
38425;SDS011;24210;51.460;6.148;2022-11-20T02:13:04;12.70;;;10.35;;
38425;SDS011;24210;51.460;6.148;2022-11-20T02:15:47;14.15;;;10.52;;
38425;SDS011;24210;51.460;6.148;2022-11-20T02:18:13;15.03;;;10.37;;
38425;SDS011;24210;51.460;6.148;2022-11-20T02:20:40;14.35;;;10.90;;
38425;SDS011;24210;51.460;6.148;2022-11-20T02:23:31;13.90;;;10.90;;
38425;SDS011;24210;51.460;6.148;2022-11-20T02:25:57;13.50;;;10.18;;
38425;SDS011;24210;51.460;6.148;2022-11-20T02:28:23;13.20;;;10.67;;
38425;SDS011;24210;51.460;6.148;2022-11-20T02:30:49;12.07;;;8.93;;
38425;SDS011;24210;51.460;6.148;2022-11-20T02:33:14;12.07;;;9.93;;
38425;SDS011;24210;51.460;6.148;2022-11-20T02:35:40;15.47;;;10.23;;
38425;SDS011;24210;51.460;6.148;2022-11-20T02:38:05;13.27;;;9.82;;
38425;SDS011;24210;51.460;6.148;2022-11-20T02:40:31;14.37;;;9.97;;
38425;SDS011;24210;51.460;6.148;2022-11-20T02:42:56;14.33;;;10.50;;
38425;SDS011;24210;51.460;6.148;2022-11-20T02:45:22;12.07;;;10.67;;
38425;SDS011;24210;51.460;6.148;2022-11-20T02:47:47;14.33;;;10.50;;
38425;SDS011;24210;51.460;6.148;2022-11-20T02:50:13;16.43;;;10.70;;
38425;SDS011;24210;51.460;6.148;2022-11-20T02:52:38;17.83;;;12.83;;
38425;SDS011;24210;51.460;6.148;2022-11-20T02:55:03;18.20;;;11.37;;
38425;SDS011;24210;51.460;6.148;2022-11-20T02:57:28;14.33;;;10.63;;
38425;SDS011;24210;51.460;6.148;2022-11-20T02:59:54;15.17;;;11.20;;
38425;SDS011;24210;51.460;6.148;2022-11-20T03:02:19;15.43;;;11.17;;
38425;SDS011;24210;51.460;6.148;2022-11-20T03:04:45;13.85;;;10.65;;
38425;SDS011;24210;51.460;6.148;2022-11-20T03:07:10;16.10;;;11.23;;
38425;SDS011;24210;51.460;6.148;2022-11-20T03:09:35;14.57;;;10.83;;
38425;SDS011;24210;51.460;6.148;2022-11-20T03:12:01;14.97;;;10.80;;
38425;SDS011;24210;51.460;6.148;2022-11-20T03:14:26;14.00;;;11.07;;
38425;SDS011;24210;51.460;6.148;2022-11-20T03:16:51;14.27;;;10.60;;
38425;SDS011;24210;51.460;6.148;2022-11-20T03:19:17;16.37;;;10.97;;
38425;SDS011;24210;51.460;6.148;2022-11-20T03:21:42;12.83;;;10.30;;
38425;SDS011;24210;51.460;6.148;2022-11-20T03:24:07;12.13;;;10.57;;
38425;SDS011;24210;51.460;6.148;2022-11-20T03:26:32;14.23;;;10.60;;
38425;SDS011;24210;51.460;6.148;2022-11-20T03:28:59;15.77;;;11.23;;
38425;SDS011;24210;51.460;6.148;2022-11-20T03:31:25;13.63;;;11.40;;
38425;SDS011;24210;51.460;6.148;2022-11-20T03:33:51;14.70;;;9.68;;
38425;SDS011;24210;51.460;6.148;2022-11-20T03:36:17;15.47;;;10.93;;
38425;SDS011;24210;51.460;6.148;2022-11-20T03:38:43;15.02;;;11.13;;
38425;SDS011;24210;51.460;6.148;2022-11-20T03:41:09;14.77;;;10.77;;
38425;SDS011;24210;51.460;6.148;2022-11-20T03:43:35;15.35;;;11.88;;
38425;SDS011;24210;51.460;6.148;2022-11-20T03:46:00;14.87;;;10.53;;
38425;SDS011;24210;51.460;6.148;2022-11-20T03:48:25;16.07;;;11.23;;
38425;SDS011;24210;51.460;6.148;2022-11-20T03:50:51;15.77;;;11.83;;
38425;SDS011;24210;51.460;6.148;2022-11-20T03:53:17;13.33;;;11.27;;
38425;SDS011;24210;51.460;6.148;2022-11-20T03:55:42;18.33;;;12.53;;
38425;SDS011;24210;51.460;6.148;2022-11-20T03:58:08;14.50;;;11.87;;
38425;SDS011;24210;51.460;6.148;2022-11-20T04:00:33;19.37;;;11.87;;
38425;SDS011;24210;51.460;6.148;2022-11-20T04:02:59;17.23;;;11.87;;
38425;SDS011;24210;51.460;6.148;2022-11-20T04:05:24;13.83;;;11.00;;
38425;SDS011;24210;51.460;6.148;2022-11-20T04:07:49;14.03;;;11.40;;
38425;SDS011;24210;51.460;6.148;2022-11-20T04:10:14;16.60;;;12.00;;
38425;SDS011;24210;51.460;6.148;2022-11-20T04:12:40;15.50;;;11.60;;
38425;SDS011;24210;51.460;6.148;2022-11-20T04:15:05;16.77;;;12.73;;
38425;SDS011;24210;51.460;6.148;2022-11-20T04:17:30;15.77;;;12.03;;
38425;SDS011;24210;51.460;6.148;2022-11-20T04:19:55;15.73;;;12.13;;
38425;SDS011;24210;51.460;6.148;2022-11-20T04:22:21;16.23;;;10.50;;
38425;SDS011;24210;51.460;6.148;2022-11-20T04:24:46;13.40;;;11.30;;
38425;SDS011;24210;51.460;6.148;2022-11-20T04:27:11;14.93;;;11.87;;
38425;SDS011;24210;51.460;6.148;2022-11-20T04:29:36;15.70;;;11.87;;
38425;SDS011;24210;51.460;6.148;2022-11-20T04:32:01;15.43;;;10.70;;
38425;SDS011;24210;51.460;6.148;2022-11-20T04:34:27;14.43;;;10.77;;
38425;SDS011;24210;51.460;6.148;2022-11-20T04:36:52;15.63;;;11.57;;
38425;SDS011;24210;51.460;6.148;2022-11-20T04:39:17;16.23;;;11.20;;
38425;SDS011;24210;51.460;6.148;2022-11-20T04:41:42;13.60;;;11.43;;
38425;SDS011;24210;51.460;6.148;2022-11-20T04:44:08;16.50;;;12.03;;
38425;SDS011;24210;51.460;6.148;2022-11-20T04:46:34;14.50;;;11.67;;
38425;SDS011;24210;51.460;6.148;2022-11-20T04:49:00;13.30;;;11.35;;
38425;SDS011;24210;51.460;6.148;2022-11-20T04:51:25;15.33;;;11.40;;
38425;SDS011;24210;51.460;6.148;2022-11-20T04:53:50;14.17;;;11.60;;
38425;SDS011;24210;51.460;6.148;2022-11-20T04:56:15;17.03;;;11.43;;
38425;SDS011;24210;51.460;6.148;2022-11-20T04:58:41;13.93;;;10.87;;
38425;SDS011;24210;51.460;6.148;2022-11-20T05:01:13;13.03;;;11.23;;
38425;SDS011;24210;51.460;6.148;2022-11-20T05:03:39;15.95;;;11.70;;
38425;SDS011;24210;51.460;6.148;2022-11-20T05:06:05;14.40;;;10.85;;
38425;SDS011;24210;51.460;6.148;2022-11-20T05:08:30;15.00;;;12.30;;
38425;SDS011;24210;51.460;6.148;2022-11-20T05:11:15;15.00;;;11.40;;
38425;SDS011;24210;51.460;6.148;2022-11-20T05:13:40;13.93;;;10.93;;
38425;SDS011;24210;51.460;6.148;2022-11-20T05:16:12;15.50;;;11.77;;
38425;SDS011;24210;51.460;6.148;2022-11-20T05:18:38;13.00;;;10.60;;
38425;SDS011;24210;51.460;6.148;2022-11-20T05:21:03;14.73;;;11.30;;
38425;SDS011;24210;51.460;6.148;2022-11-20T05:23:29;13.27;;;10.80;;
38425;SDS011;24210;51.460;6.148;2022-11-20T05:25:55;17.23;;;11.60;;
38425;SDS011;24210;51.460;6.148;2022-11-20T05:28:21;15.57;;;11.40;;
38425;SDS011;24210;51.460;6.148;2022-11-20T05:30:47;14.53;;;11.00;;
38425;SDS011;24210;51.460;6.148;2022-11-20T05:33:12;16.63;;;11.37;;
38425;SDS011;24210;51.460;6.148;2022-11-20T05:35:37;15.70;;;11.57;;
38425;SDS011;24210;51.460;6.148;2022-11-20T05:38:02;14.50;;;11.97;;
38425;SDS011;24210;51.460;6.148;2022-11-20T05:40:28;15.83;;;12.07;;
38425;SDS011;24210;51.460;6.148;2022-11-20T05:42:53;14.67;;;10.90;;
38425;SDS011;24210;51.460;6.148;2022-11-20T05:45:18;16.17;;;12.13;;
38425;SDS011;24210;51.460;6.148;2022-11-20T05:47:43;15.50;;;11.97;;
38425;SDS011;24210;51.460;6.148;2022-11-20T05:50:08;17.67;;;11.30;;
38425;SDS011;24210;51.460;6.148;2022-11-20T05:52:34;14.67;;;11.70;;
38425;SDS011;24210;51.460;6.148;2022-11-20T05:54:59;17.10;;;12.37;;
38425;SDS011;24210;51.460;6.148;2022-11-20T05:57:24;14.20;;;9.80;;
38425;SDS011;24210;51.460;6.148;2022-11-20T05:59:49;18.27;;;11.00;;
38425;SDS011;24210;51.460;6.148;2022-11-20T06:02:14;16.30;;;11.83;;
38425;SDS011;24210;51.460;6.148;2022-11-20T06:04:40;14.57;;;10.33;;
38425;SDS011;24210;51.460;6.148;2022-11-20T06:07:05;14.53;;;11.70;;
38425;SDS011;24210;51.460;6.148;2022-11-20T06:09:30;14.03;;;10.87;;
38425;SDS011;24210;51.460;6.148;2022-11-20T06:11:55;15.70;;;11.67;;
38425;SDS011;24210;51.460;6.148;2022-11-20T06:14:21;14.50;;;10.73;;
38425;SDS011;24210;51.460;6.148;2022-11-20T06:16:46;15.40;;;11.57;;
38425;SDS011;24210;51.460;6.148;2022-11-20T06:19:11;14.10;;;11.17;;
38425;SDS011;24210;51.460;6.148;2022-11-20T06:21:36;14.60;;;10.23;;
38425;SDS011;24210;51.460;6.148;2022-11-20T06:24:02;11.47;;;10.00;;
38425;SDS011;24210;51.460;6.148;2022-11-20T06:26:27;14.17;;;9.67;;
38425;SDS011;24210;51.460;6.148;2022-11-20T06:28:53;12.90;;;10.33;;
38425;SDS011;24210;51.460;6.148;2022-11-20T06:31:20;13.10;;;10.32;;
38425;SDS011;24210;51.460;6.148;2022-11-20T06:33:45;13.80;;;10.57;;
38425;SDS011;24210;51.460;6.148;2022-11-20T06:36:11;13.83;;;10.67;;
38425;SDS011;24210;51.460;6.148;2022-11-20T06:38:37;13.93;;;11.02;;
38425;SDS011;24210;51.460;6.148;2022-11-20T06:41:03;14.97;;;11.50;;
38425;SDS011;24210;51.460;6.148;2022-11-20T06:43:29;13.80;;;10.47;;
38425;SDS011;24210;51.460;6.148;2022-11-20T06:45:55;14.83;;;11.17;;
38425;SDS011;24210;51.460;6.148;2022-11-20T06:48:20;13.43;;;9.95;;
38425;SDS011;24210;51.460;6.148;2022-11-20T06:50:46;14.82;;;10.95;;
38425;SDS011;24210;51.460;6.148;2022-11-20T06:53:11;13.63;;;10.40;;
38425;SDS011;24210;51.460;6.148;2022-11-20T06:55:37;13.17;;;11.10;;
38425;SDS011;24210;51.460;6.148;2022-11-20T06:58:06;13.50;;;10.80;;
38425;SDS011;24210;51.460;6.148;2022-11-20T07:00:32;14.33;;;10.30;;
38425;SDS011;24210;51.460;6.148;2022-11-20T07:02:57;14.20;;;10.60;;
38425;SDS011;24210;51.460;6.148;2022-11-20T07:05:22;12.37;;;10.20;;
38425;SDS011;24210;51.460;6.148;2022-11-20T07:07:47;14.53;;;11.27;;
38425;SDS011;24210;51.460;6.148;2022-11-20T07:10:13;16.10;;;10.67;;
38425;SDS011;24210;51.460;6.148;2022-11-20T07:12:38;18.33;;;12.87;;
38425;SDS011;24210;51.460;6.148;2022-11-20T07:15:03;14.90;;;11.53;;
38425;SDS011;24210;51.460;6.148;2022-11-20T07:17:29;15.43;;;11.63;;
38425;SDS011;24210;51.460;6.148;2022-11-20T07:19:54;16.70;;;10.87;;
38425;SDS011;24210;51.460;6.148;2022-11-20T07:22:19;14.10;;;10.43;;
38425;SDS011;24210;51.460;6.148;2022-11-20T07:24:46;15.20;;;10.55;;
38425;SDS011;24210;51.460;6.148;2022-11-20T07:27:11;13.57;;;11.07;;
38425;SDS011;24210;51.460;6.148;2022-11-20T07:29:37;15.87;;;11.03;;
38425;SDS011;24210;51.460;6.148;2022-11-20T07:32:02;15.53;;;11.43;;
38425;SDS011;24210;51.460;6.148;2022-11-20T07:34:28;13.98;;;10.63;;
38425;SDS011;24210;51.460;6.148;2022-11-20T07:36:54;13.87;;;10.83;;
38425;SDS011;24210;51.460;6.148;2022-11-20T07:39:19;15.00;;;12.07;;
38425;SDS011;24210;51.460;6.148;2022-11-20T07:41:44;13.53;;;10.47;;
38425;SDS011;24210;51.460;6.148;2022-11-20T07:44:09;19.10;;;11.73;;
38425;SDS011;24210;51.460;6.148;2022-11-20T07:46:34;15.33;;;11.57;;
38425;SDS011;24210;51.460;6.148;2022-11-20T07:49:00;14.50;;;11.33;;
38425;SDS011;24210;51.460;6.148;2022-11-20T07:51:25;15.97;;;11.60;;
38425;SDS011;24210;51.460;6.148;2022-11-20T07:53:54;15.83;;;11.50;;
38425;SDS011;24210;51.460;6.148;2022-11-20T07:56:19;14.15;;;11.63;;
38425;SDS011;24210;51.460;6.148;2022-11-20T07:58:45;15.80;;;11.98;;
38425;SDS011;24210;51.460;6.148;2022-11-20T08:01:10;13.97;;;11.00;;
38425;SDS011;24210;51.460;6.148;2022-11-20T08:03:35;17.40;;;12.70;;
38425;SDS011;24210;51.460;6.148;2022-11-20T08:06:02;14.18;;;10.88;;
38425;SDS011;24210;51.460;6.148;2022-11-20T08:08:27;14.23;;;10.53;;
38425;SDS011;24210;51.460;6.148;2022-11-20T08:10:53;14.67;;;11.53;;
38425;SDS011;24210;51.460;6.148;2022-11-20T08:13:38;17.85;;;11.77;;
38425;SDS011;24210;51.460;6.148;2022-11-20T08:16:22;17.30;;;12.52;;
38425;SDS011;24210;51.460;6.148;2022-11-20T08:18:47;19.43;;;16.83;;
38425;SDS011;24210;51.460;6.148;2022-11-20T08:21:13;20.27;;;15.73;;
38425;SDS011;24210;51.460;6.148;2022-11-20T08:23:38;19.70;;;16.77;;
38425;SDS011;24210;51.460;6.148;2022-11-20T08:26:03;17.20;;;12.37;;
38425;SDS011;24210;51.460;6.148;2022-11-20T08:28:28;18.83;;;15.47;;
38425;SDS011;24210;51.460;6.148;2022-11-20T08:30:58;15.53;;;11.80;;
38425;SDS011;24210;51.460;6.148;2022-11-20T08:33:23;15.35;;;12.10;;
38425;SDS011;24210;51.460;6.148;2022-11-20T08:35:48;15.37;;;11.67;;
38425;SDS011;24210;51.460;6.148;2022-11-20T08:38:14;20.17;;;12.03;;
38425;SDS011;24210;51.460;6.148;2022-11-20T08:40:39;16.93;;;12.13;;
38425;SDS011;24210;51.460;6.148;2022-11-20T08:43:04;20.90;;;17.87;;
38425;SDS011;24210;51.460;6.148;2022-11-20T08:45:29;18.10;;;14.67;;
38425;SDS011;24210;51.460;6.148;2022-11-20T08:47:59;19.13;;;17.00;;
38425;SDS011;24210;51.460;6.148;2022-11-20T08:50:24;17.05;;;14.02;;
38425;SDS011;24210;51.460;6.148;2022-11-20T08:52:49;20.40;;;14.67;;
38425;SDS011;24210;51.460;6.148;2022-11-20T08:55:14;16.80;;;13.67;;
38425;SDS011;24210;51.460;6.148;2022-11-20T08:57:40;22.87;;;15.23;;
38425;SDS011;24210;51.460;6.148;2022-11-20T09:00:05;18.10;;;13.20;;
38425;SDS011;24210;51.460;6.148;2022-11-20T09:02:31;15.45;;;12.07;;
38425;SDS011;24210;51.460;6.148;2022-11-20T09:04:57;16.53;;;13.83;;
38425;SDS011;24210;51.460;6.148;2022-11-20T09:07:22;19.20;;;13.20;;
38425;SDS011;24210;51.460;6.148;2022-11-20T09:09:47;16.40;;;12.63;;
38425;SDS011;24210;51.460;6.148;2022-11-20T09:12:12;18.67;;;15.70;;
38425;SDS011;24210;51.460;6.148;2022-11-20T09:14:38;18.93;;;13.40;;
38425;SDS011;24210;51.460;6.148;2022-11-20T09:17:03;22.80;;;14.53;;
38425;SDS011;24210;51.460;6.148;2022-11-20T09:19:29;20.37;;;14.30;;
38425;SDS011;24210;51.460;6.148;2022-11-20T09:21:54;19.10;;;14.43;;
38425;SDS011;24210;51.460;6.148;2022-11-20T09:24:19;21.40;;;14.97;;
38425;SDS011;24210;51.460;6.148;2022-11-20T09:26:45;18.88;;;13.88;;
38425;SDS011;24210;51.460;6.148;2022-11-20T09:29:11;20.70;;;15.27;;
38425;SDS011;24210;51.460;6.148;2022-11-20T09:31:36;21.83;;;15.73;;
38425;SDS011;24210;51.460;6.148;2022-11-20T09:34:01;22.87;;;16.40;;
38425;SDS011;24210;51.460;6.148;2022-11-20T09:36:26;19.00;;;14.20;;
38425;SDS011;24210;51.460;6.148;2022-11-20T09:38:52;21.83;;;15.77;;
38425;SDS011;24210;51.460;6.148;2022-11-20T09:43:58;21.65;;;16.52;;
38425;SDS011;24210;51.460;6.148;2022-11-20T09:46:38;21.38;;;14.70;;
38425;SDS011;24210;51.460;6.148;2022-11-20T09:54:18;25.60;;;17.63;;
38425;SDS011;24210;51.460;6.148;2022-11-20T09:56:52;24.33;;;15.43;;
38425;SDS011;24210;51.460;6.148;2022-11-20T09:59:23;25.00;;;18.10;;
38425;SDS011;24210;51.460;6.148;2022-11-20T10:01:51;20.83;;;16.42;;
38425;SDS011;24210;51.460;6.148;2022-11-20T10:04:17;23.40;;;16.13;;
38425;SDS011;24210;51.460;6.148;2022-11-20T10:06:51;22.48;;;15.77;;
38425;SDS011;24210;51.460;6.148;2022-11-20T10:09:36;43.05;;;23.35;;
38425;SDS011;24210;51.460;6.148;2022-11-20T10:12:09;28.73;;;18.23;;
38425;SDS011;24210;51.460;6.148;2022-11-20T10:14:50;25.48;;;16.92;;
38425;SDS011;24210;51.460;6.148;2022-11-20T10:19:56;35.25;;;18.40;;
38425;SDS011;24210;51.460;6.148;2022-11-20T10:25:15;29.33;;;17.95;;
38425;SDS011;24210;51.460;6.148;2022-11-20T10:27:56;41.65;;;19.80;;
38425;SDS011;24210;51.460;6.148;2022-11-20T10:30:27;40.30;;;19.83;;
38425;SDS011;24210;51.460;6.148;2022-11-20T10:32:56;42.00;;;19.08;;
38425;SDS011;24210;51.460;6.148;2022-11-20T10:37:59;43.30;;;21.92;;
38425;SDS011;24210;51.460;6.148;2022-11-20T10:42:51;58.10;;;26.23;;
38425;SDS011;24210;51.460;6.148;2022-11-20T10:47:49;67.25;;;29.98;;
38425;SDS011;24210;51.460;6.148;2022-11-20T10:50:16;66.87;;;28.67;;
38425;SDS011;24210;51.460;6.148;2022-11-20T10:52:56;63.90;;;30.80;;
38425;SDS011;24210;51.460;6.148;2022-11-20T10:55:30;60.97;;;28.55;;
38425;SDS011;24210;51.460;6.148;2022-11-20T10:58:05;69.55;;;31.48;;
38425;SDS011;24210;51.460;6.148;2022-11-20T11:00:35;66.82;;;30.00;;
38425;SDS011;24210;51.460;6.148;2022-11-20T11:03:00;66.23;;;32.77;;
38425;SDS011;24210;51.460;6.148;2022-11-20T11:07:59;72.93;;;32.65;;
38425;SDS011;24210;51.460;6.148;2022-11-20T11:12:56;68.65;;;31.10;;
38425;SDS011;24210;51.460;6.148;2022-11-20T11:15:38;70.70;;;27.90;;
38425;SDS011;24210;51.460;6.148;2022-11-20T11:18:04;72.75;;;34.90;;
38425;SDS011;24210;51.460;6.148;2022-11-20T11:20:29;63.47;;;29.60;;
38425;SDS011;24210;51.460;6.148;2022-11-20T11:22:55;76.07;;;30.37;;
38425;SDS011;24210;51.460;6.148;2022-11-20T11:25:22;62.80;;;29.80;;
38425;SDS011;24210;51.460;6.148;2022-11-20T11:27:49;70.38;;;26.90;;
38425;SDS011;24210;51.460;6.148;2022-11-20T11:30:16;69.45;;;29.90;;
38425;SDS011;24210;51.460;6.148;2022-11-20T11:32:41;75.70;;;32.10;;
38425;SDS011;24210;51.460;6.148;2022-11-20T11:35:18;75.50;;;30.83;;
38425;SDS011;24210;51.460;6.148;2022-11-20T11:37:44;72.20;;;39.00;;
38425;SDS011;24210;51.460;6.148;2022-11-20T11:40:10;76.20;;;31.52;;
38425;SDS011;24210;51.460;6.148;2022-11-20T11:42:39;75.97;;;32.20;;
38425;SDS011;24210;51.460;6.148;2022-11-20T11:45:05;68.55;;;29.98;;
38425;SDS011;24210;51.460;6.148;2022-11-20T11:47:42;68.03;;;31.13;;
38425;SDS011;24210;51.460;6.148;2022-11-20T11:52:40;64.43;;;31.17;;
38425;SDS011;24210;51.460;6.148;2022-11-20T11:55:07;64.07;;;32.38;;
38425;SDS011;24210;51.460;6.148;2022-11-20T11:58:09;61.10;;;28.45;;
38425;SDS011;24210;51.460;6.148;2022-11-20T12:00:26;67.68;;;30.33;;
38425;SDS011;24210;51.460;6.148;2022-11-20T12:05:32;61.20;;;26.63;;
38425;SDS011;24210;51.460;6.148;2022-11-20T12:15:36;58.65;;;27.25;;
38425;SDS011;24210;51.460;6.148;2022-11-20T12:18:04;68.25;;;28.30;;
38425;SDS011;24210;51.460;6.148;2022-11-20T12:20:35;56.13;;;27.00;;
38425;SDS011;24210;51.460;6.148;2022-11-20T12:23:52;56.42;;;25.85;;
38425;SDS011;24210;51.460;6.148;2022-11-20T12:25:50;53.50;;;24.92;;
38425;SDS011;24210;51.460;6.148;2022-11-20T12:33:40;54.78;;;25.27;;
38425;SDS011;24210;51.460;6.148;2022-11-20T12:47:14;49.95;;;25.52;;
38425;SDS011;24210;51.460;6.148;2022-11-20T12:57:18;45.08;;;23.00;;
38425;SDS011;24210;51.460;6.148;2022-11-20T13:02:17;48.93;;;25.57;;
38425;SDS011;24210;51.460;6.148;2022-11-20T13:07:28;47.85;;;24.75;;
38425;SDS011;24210;51.460;6.148;2022-11-20T13:09:54;43.90;;;25.23;;
38425;SDS011;24210;51.460;6.148;2022-11-20T13:12:23;41.73;;;22.57;;
38425;SDS011;24210;51.460;6.148;2022-11-20T13:15:08;44.40;;;24.42;;
38425;SDS011;24210;51.460;6.148;2022-11-20T13:17:51;41.75;;;22.33;;
38425;SDS011;24210;51.460;6.148;2022-11-20T13:20:19;40.67;;;24.10;;
38425;SDS011;24210;51.460;6.148;2022-11-20T13:22:45;39.30;;;22.27;;
38425;SDS011;24210;51.460;6.148;2022-11-20T13:27:48;40.45;;;24.10;;
38425;SDS011;24210;51.460;6.148;2022-11-20T13:30:18;44.17;;;24.87;;
38425;SDS011;24210;51.460;6.148;2022-11-20T13:32:50;43.13;;;23.65;;
38425;SDS011;24210;51.460;6.148;2022-11-20T13:35:23;39.53;;;23.48;;
38425;SDS011;24210;51.460;6.148;2022-11-20T13:37:49;42.00;;;24.30;;
38425;SDS011;24210;51.460;6.148;2022-11-20T13:40:24;43.83;;;23.92;;
38425;SDS011;24210;51.460;6.148;2022-11-20T13:45:33;45.63;;;26.73;;
38425;SDS011;24210;51.460;6.148;2022-11-20T13:48:01;43.90;;;27.57;;
38425;SDS011;24210;51.460;6.148;2022-11-20T13:50:37;42.03;;;24.75;;
38425;SDS011;24210;51.460;6.148;2022-11-20T14:01:10;39.55;;;24.67;;
38425;SDS011;24210;51.460;6.148;2022-11-20T14:03:36;41.90;;;23.63;;
38425;SDS011;24210;51.460;6.148;2022-11-20T14:06:02;39.80;;;23.03;;
38425;SDS011;24210;51.460;6.148;2022-11-20T14:08:49;42.45;;;20.58;;
38425;SDS011;24210;51.460;6.148;2022-11-20T14:11:15;38.72;;;22.73;;
38425;SDS011;24210;51.460;6.148;2022-11-20T14:13:50;41.83;;;23.73;;
38425;SDS011;24210;51.460;6.148;2022-11-20T14:16:19;41.72;;;23.25;;
38425;SDS011;24210;51.460;6.148;2022-11-20T14:18:44;39.05;;;21.70;;
38425;SDS011;24210;51.460;6.148;2022-11-20T14:21:09;43.07;;;24.03;;
38425;SDS011;24210;51.460;6.148;2022-11-20T14:23:35;36.47;;;20.57;;
38425;SDS011;24210;51.460;6.148;2022-11-20T14:26:00;38.77;;;21.13;;
38425;SDS011;24210;51.460;6.148;2022-11-20T14:28:26;39.10;;;20.97;;
38425;SDS011;24210;51.460;6.148;2022-11-20T14:33:17;38.13;;;22.38;;
38425;SDS011;24210;51.460;6.148;2022-11-20T14:35:45;66.07;;;35.10;;
38425;SDS011;24210;51.460;6.148;2022-11-20T14:38:12;31.30;;;19.52;;
38425;SDS011;24210;51.460;6.148;2022-11-20T14:40:38;34.45;;;21.92;;
38425;SDS011;24210;51.460;6.148;2022-11-20T14:43:16;40.33;;;23.20;;
38425;SDS011;24210;51.460;6.148;2022-11-20T14:45:42;39.35;;;21.63;;
38425;SDS011;24210;51.460;6.148;2022-11-20T14:48:08;37.53;;;21.33;;
38425;SDS011;24210;51.460;6.148;2022-11-20T14:53:00;35.05;;;20.85;;
38425;SDS011;24210;51.460;6.148;2022-11-20T14:55:26;38.40;;;21.53;;
38425;SDS011;24210;51.460;6.148;2022-11-20T14:57:59;39.97;;;22.48;;
38425;SDS011;24210;51.460;6.148;2022-11-20T15:00:24;32.97;;;21.13;;
38425;SDS011;24210;51.460;6.148;2022-11-20T15:02:50;35.83;;;23.20;;
38425;SDS011;24210;51.460;6.148;2022-11-20T15:05:17;34.33;;;21.50;;
38425;SDS011;24210;51.460;6.148;2022-11-20T15:07:44;35.67;;;24.00;;
38425;SDS011;24210;51.460;6.148;2022-11-20T15:12:46;36.97;;;22.95;;
38425;SDS011;24210;51.460;6.148;2022-11-20T15:15:12;37.15;;;20.02;;
38425;SDS011;24210;51.460;6.148;2022-11-20T15:17:39;35.85;;;21.95;;
38425;SDS011;24210;51.460;6.148;2022-11-20T15:20:08;35.20;;;21.83;;
38425;SDS011;24210;51.460;6.148;2022-11-20T15:22:35;39.08;;;21.45;;
38425;SDS011;24210;51.460;6.148;2022-11-20T15:25:01;35.50;;;21.57;;
38425;SDS011;24210;51.460;6.148;2022-11-20T15:27:26;34.47;;;20.13;;
38425;SDS011;24210;51.460;6.148;2022-11-20T15:29:52;38.28;;;22.98;;
38425;SDS011;24210;51.460;6.148;2022-11-20T15:32:18;37.77;;;20.20;;
38425;SDS011;24210;51.460;6.148;2022-11-20T15:34:43;38.37;;;23.30;;
38425;SDS011;24210;51.460;6.148;2022-11-20T15:37:08;40.90;;;22.57;;
38425;SDS011;24210;51.460;6.148;2022-11-20T15:39:34;37.70;;;22.03;;
38425;SDS011;24210;51.460;6.148;2022-11-20T15:41:59;39.93;;;22.73;;
38425;SDS011;24210;51.460;6.148;2022-11-20T15:44:24;35.37;;;22.17;;
38425;SDS011;24210;51.460;6.148;2022-11-20T15:46:49;35.80;;;22.47;;
38425;SDS011;24210;51.460;6.148;2022-11-20T15:49:15;36.13;;;21.90;;
38425;SDS011;24210;51.460;6.148;2022-11-20T15:51:41;36.22;;;19.67;;
38425;SDS011;24210;51.460;6.148;2022-11-20T15:56:32;34.13;;;20.85;;
38425;SDS011;24210;51.460;6.148;2022-11-20T15:58:58;37.93;;;22.97;;